IRA954T DTTA-DAOO
Flight info
| Callsign | IRA954T |
|---|---|
| Flight time | 1h 31m |
| Altitude | 34000 |
| Route | KEMIR2A KEMIR UM978 MORJA UA411 BNA UA31 CHE UA411 MOS |
| Aircraft | B38M/M-SDE1FGHILORVWXY/HB1 |
Departure
| Time | 2026-04-22 21:50 |
|---|---|
| Airport | Tunis Carthage International Airport (DTTA) |
Arrival
| Time | 2026-04-22 23:22 |
|---|---|
| Airport | Oran Es-Sénia (Ahmed Ben Bella) International Airport (DAOO) |
| Time | Latitude | Longitude | Altitude | Speed | Heading |
|---|---|---|---|---|---|
| 2026-04-22 21:22 | 36.84105 | 10.21801 | 33 ft | 0 kts | 282° |
| 2026-04-22 21:34 | 36.84105 | 10.21800 | 33 ft | 1 kts | 282° |
| 2026-04-22 21:34 | 36.84107 | 10.21787 | 33 ft | 3 kts | 282° |
| 2026-04-22 21:35 | 36.84113 | 10.21755 | 33 ft | 5 kts | 282° |
| 2026-04-22 21:35 | 36.84121 | 10.21706 | 33 ft | 7 kts | 282° |
| 2026-04-22 21:35 | 36.84131 | 10.21648 | 33 ft | 7 kts | 282° |
| 2026-04-22 21:35 | 36.84144 | 10.21576 | 33 ft | 9 kts | 282° |
| 2026-04-22 21:36 | 36.84157 | 10.21500 | 33 ft | 7 kts | 282° |
| 2026-04-22 21:36 | 36.84164 | 10.21464 | 33 ft | 0 kts | 284° |
| 2026-04-22 21:45 | 36.84148 | 10.21539 | 33 ft | 20 kts | 284° |
| 2026-04-22 21:45 | 36.84099 | 10.21786 | 33 ft | 25 kts | 284° |
| 2026-04-22 21:46 | 36.84093 | 10.21819 | 34 ft | 0 kts | 284° |
| 2026-04-22 21:46 | 36.84093 | 10.21818 | 33 ft | 0 kts | 284° |
| 2026-04-22 21:47 | 36.84093 | 10.21816 | 33 ft | 1 kts | 284° |
| 2026-04-22 21:47 | 36.84093 | 10.21801 | 33 ft | 2 kts | 254° |
| 2026-04-22 21:48 | 36.84079 | 10.21787 | 33 ft | 3 kts | 197° |
| 2026-04-22 21:48 | 36.84055 | 10.21793 | 33 ft | 4 kts | 163° |
| 2026-04-22 21:48 | 36.84031 | 10.21820 | 33 ft | 6 kts | 135° |
| 2026-04-22 21:48 | 36.83999 | 10.21860 | 33 ft | 8 kts | 135° |
| 2026-04-22 21:49 | 36.83956 | 10.21913 | 33 ft | 10 kts | 135° |
| 2026-04-22 21:49 | 36.83903 | 10.21977 | 33 ft | 12 kts | 135° |
| 2026-04-22 21:49 | 36.83873 | 10.22057 | 33 ft | 10 kts | 96° |
| 2026-04-22 21:49 | 36.83871 | 10.22175 | 33 ft | 24 kts | 82° |
| 2026-04-22 21:50 | 36.84067 | 10.22420 | 34 ft | 67 kts | 18° |
| 2026-04-22 21:50 | 36.84729 | 10.22597 | 33 ft | 131 kts | 12° |
| 2026-04-22 21:50 | 36.85850 | 10.22890 | 103 ft | 191 kts | 12° |
| 2026-04-22 21:50 | 36.87234 | 10.23206 | 812 ft | 208 kts | 4° |
| 2026-04-22 21:51 | 36.88628 | 10.23090 | 2150 ft | 198 kts | 348° |
| 2026-04-22 21:51 | 36.90063 | 10.22932 | 2888 ft | 219 kts | 11° |
| 2026-04-22 21:51 | 36.91566 | 10.23555 | 3562 ft | 237 kts | 15° |
| 2026-04-22 21:52 | 36.94600 | 10.22155 | 5197 ft | 258 kts | 302° |
| 2026-04-22 21:52 | 36.95096 | 10.20013 | 6129 ft | 262 kts | 266° |
| 2026-04-22 21:52 | 36.94551 | 10.17851 | 7058 ft | 266 kts | 239° |
| 2026-04-22 21:52 | 36.93412 | 10.16000 | 7973 ft | 271 kts | 226° |
| 2026-04-22 21:53 | 36.92089 | 10.14302 | 8872 ft | 275 kts | 227° |
| 2026-04-22 21:53 | 36.90808 | 10.12500 | 9696 ft | 282 kts | 230° |
| 2026-04-22 21:53 | 36.89743 | 10.10449 | 9826 ft | 282 kts | 250° |
| 2026-04-22 21:53 | 36.89220 | 10.08075 | 10227 ft | 284 kts | 255° |
| 2026-04-22 21:54 | 36.88744 | 10.05684 | 11117 ft | 286 kts | 256° |
| 2026-04-22 21:54 | 36.88277 | 10.03193 | 11601 ft | 304 kts | 257° |
| 2026-04-22 21:54 | 36.87797 | 10.00526 | 11967 ft | 324 kts | 257° |
| 2026-04-22 21:54 | 36.87299 | 9.97696 | 12284 ft | 344 kts | 258° |
| 2026-04-22 21:55 | 36.86778 | 9.94694 | 12581 ft | 362 kts | 258° |
| 2026-04-22 21:55 | 36.86238 | 9.91562 | 13009 ft | 374 kts | 258° |
| 2026-04-22 21:55 | 36.85690 | 9.88375 | 13737 ft | 376 kts | 258° |
| 2026-04-22 21:55 | 36.85138 | 9.85171 | 14376 ft | 380 kts | 258° |
| 2026-04-22 21:56 | 36.84587 | 9.81926 | 15018 ft | 384 kts | 260° |
| 2026-04-22 21:56 | 36.84426 | 9.78588 | 15631 ft | 387 kts | 269° |
| 2026-04-22 21:56 | 36.84379 | 9.75216 | 16221 ft | 391 kts | 269° |
| 2026-04-22 21:56 | 36.84321 | 9.71799 | 16780 ft | 395 kts | 269° |
| 2026-04-22 21:57 | 36.84259 | 9.68350 | 17353 ft | 399 kts | 269° |
| 2026-04-22 21:57 | 36.84195 | 9.64881 | 17900 ft | 402 kts | 269° |
| 2026-04-22 21:57 | 36.84130 | 9.61377 | 18464 ft | 405 kts | 269° |
| 2026-04-22 21:57 | 36.84063 | 9.57854 | 19012 ft | 407 kts | 269° |
| 2026-04-22 21:58 | 36.83994 | 9.54301 | 19538 ft | 411 kts | 269° |
| 2026-04-22 21:58 | 36.83924 | 9.50724 | 20031 ft | 414 kts | 268° |
| 2026-04-22 21:58 | 36.83852 | 9.47125 | 20512 ft | 417 kts | 268° |
| 2026-04-22 21:58 | 36.83779 | 9.43488 | 20971 ft | 421 kts | 269° |
| 2026-04-22 21:59 | 36.83770 | 9.39815 | 21442 ft | 424 kts | 270° |
| 2026-04-22 21:59 | 36.83771 | 9.36178 | 21896 ft | 426 kts | 270° |
| 2026-04-22 21:59 | 36.83767 | 9.32417 | 22340 ft | 430 kts | 270° |
| 2026-04-22 21:59 | 36.83760 | 9.28727 | 22769 ft | 432 kts | 270° |
| 2026-04-22 22:00 | 36.83751 | 9.24963 | 23198 ft | 435 kts | 270° |
| 2026-04-22 22:00 | 36.83740 | 9.21175 | 23623 ft | 437 kts | 270° |
| 2026-04-22 22:00 | 36.83728 | 9.17362 | 24036 ft | 440 kts | 270° |
| 2026-04-22 22:00 | 36.83715 | 9.13535 | 24410 ft | 443 kts | 270° |
| 2026-04-22 22:01 | 36.83701 | 9.09683 | 24789 ft | 445 kts | 270° |
| 2026-04-22 22:01 | 36.83685 | 9.05806 | 25170 ft | 448 kts | 270° |
| 2026-04-22 22:01 | 36.83668 | 9.01911 | 25506 ft | 451 kts | 270° |
| 2026-04-22 22:01 | 36.83650 | 8.97982 | 25865 ft | 453 kts | 270° |
| 2026-04-22 22:02 | 36.83630 | 8.94044 | 26220 ft | 455 kts | 269° |
| 2026-04-22 22:02 | 36.83609 | 8.90088 | 26579 ft | 457 kts | 269° |
| 2026-04-22 22:02 | 36.83586 | 8.86128 | 27006 ft | 456 kts | 269° |
| 2026-04-22 22:02 | 36.83562 | 8.82168 | 27449 ft | 455 kts | 269° |
| 2026-04-22 22:03 | 36.83537 | 8.78219 | 27853 ft | 456 kts | 269° |
| 2026-04-22 22:03 | 36.83511 | 8.74262 | 28292 ft | 454 kts | 269° |
| 2026-04-22 22:03 | 36.83484 | 8.70334 | 28764 ft | 452 kts | 269° |
| 2026-04-22 22:03 | 36.83456 | 8.66415 | 29179 ft | 451 kts | 270° |
| 2026-04-22 22:04 | 36.83459 | 8.62501 | 29605 ft | 450 kts | 270° |
| 2026-04-22 22:04 | 36.83464 | 8.58596 | 29975 ft | 450 kts | 270° |
| 2026-04-22 22:04 | 36.83465 | 8.54694 | 30354 ft | 449 kts | 270° |
| 2026-04-22 22:04 | 36.83465 | 8.50803 | 30798 ft | 446 kts | 270° |
| 2026-04-22 22:05 | 36.83463 | 8.46945 | 31223 ft | 444 kts | 270° |
| 2026-04-22 22:05 | 36.83460 | 8.43091 | 31589 ft | 443 kts | 270° |
| 2026-04-22 22:05 | 36.83456 | 8.39238 | 31937 ft | 443 kts | 270° |
| 2026-04-22 22:05 | 36.83451 | 8.35401 | 32281 ft | 442 kts | 270° |
| 2026-04-22 22:06 | 36.83444 | 8.31582 | 32607 ft | 442 kts | 270° |
| 2026-04-22 22:06 | 36.83436 | 8.27739 | 32919 ft | 441 kts | 270° |
| 2026-04-22 22:06 | 36.83427 | 8.23905 | 33243 ft | 441 kts | 270° |
| 2026-04-22 22:06 | 36.83417 | 8.20084 | 33570 ft | 440 kts | 270° |
| 2026-04-22 22:07 | 36.83405 | 8.16271 | 33883 ft | 439 kts | 270° |
| 2026-04-22 22:07 | 36.83392 | 8.12459 | 34016 ft | 440 kts | 270° |
| 2026-04-22 22:07 | 36.83379 | 8.08643 | 33999 ft | 438 kts | 270° |
| 2026-04-22 22:08 | 36.83347 | 8.01080 | 34002 ft | 437 kts | 270° |
| 2026-04-22 22:08 | 36.83311 | 7.93492 | 34000 ft | 437 kts | 269° |
| 2026-04-22 22:09 | 36.83271 | 7.85908 | 34000 ft | 437 kts | 269° |
| 2026-04-22 22:09 | 36.83207 | 7.78317 | 34000 ft | 437 kts | 269° |
| 2026-04-22 22:10 | 36.83127 | 7.70754 | 34000 ft | 437 kts | 269° |
| 2026-04-22 22:10 | 36.83043 | 7.63160 | 34000 ft | 437 kts | 269° |
| 2026-04-22 22:11 | 36.82955 | 7.55628 | 34000 ft | 437 kts | 269° |
| 2026-04-22 22:11 | 36.82862 | 7.48038 | 34000 ft | 437 kts | 269° |
| 2026-04-22 22:12 | 36.82764 | 7.40455 | 34000 ft | 437 kts | 269° |
| 2026-04-22 22:12 | 36.82661 | 7.32862 | 34000 ft | 438 kts | 269° |
| 2026-04-22 22:13 | 36.82553 | 7.25273 | 33999 ft | 437 kts | 269° |
| 2026-04-22 22:13 | 36.82440 | 7.17672 | 34002 ft | 438 kts | 269° |
| 2026-04-22 22:14 | 36.82322 | 7.10071 | 33997 ft | 438 kts | 269° |
| 2026-04-22 22:14 | 36.82200 | 7.02468 | 34000 ft | 439 kts | 269° |
| 2026-04-22 22:15 | 36.82073 | 6.94860 | 34001 ft | 438 kts | 269° |
| 2026-04-22 22:15 | 36.81940 | 6.87251 | 34003 ft | 438 kts | 269° |
| 2026-04-22 22:16 | 36.81803 | 6.79654 | 33999 ft | 438 kts | 269° |
| 2026-04-22 22:16 | 36.81661 | 6.72029 | 34002 ft | 440 kts | 269° |
| 2026-04-22 22:17 | 36.81514 | 6.64402 | 34001 ft | 439 kts | 269° |
| 2026-04-22 22:17 | 36.81362 | 6.56808 | 34000 ft | 438 kts | 268° |
| 2026-04-22 22:18 | 36.81206 | 6.49209 | 34000 ft | 438 kts | 268° |
| 2026-04-22 22:18 | 36.81044 | 6.41591 | 34000 ft | 441 kts | 268° |
| 2026-04-22 22:19 | 36.80878 | 6.33958 | 34000 ft | 438 kts | 268° |
| 2026-04-22 22:19 | 36.80707 | 6.26370 | 34002 ft | 438 kts | 268° |
| 2026-04-22 22:20 | 36.80531 | 6.18764 | 34002 ft | 438 kts | 268° |
| 2026-04-22 22:20 | 36.80351 | 6.11178 | 33999 ft | 437 kts | 268° |
| 2026-04-22 22:21 | 36.80166 | 6.03572 | 33999 ft | 441 kts | 268° |
| 2026-04-22 22:21 | 36.79977 | 5.95941 | 34002 ft | 439 kts | 268° |
| 2026-04-22 22:22 | 36.79776 | 5.88348 | 33998 ft | 437 kts | 266° |
| 2026-04-22 22:22 | 36.78982 | 5.80838 | 34000 ft | 438 kts | 262° |
| 2026-04-22 22:23 | 36.78218 | 5.73303 | 34001 ft | 438 kts | 263° |
| 2026-04-22 22:23 | 36.77469 | 5.65768 | 34000 ft | 438 kts | 263° |
| 2026-04-22 22:24 | 36.76722 | 5.58281 | 33999 ft | 438 kts | 263° |
| 2026-04-22 22:24 | 36.75967 | 5.50756 | 34000 ft | 437 kts | 263° |
| 2026-04-22 22:25 | 36.75207 | 5.43237 | 34000 ft | 437 kts | 263° |
| 2026-04-22 22:25 | 36.74443 | 5.35722 | 33999 ft | 437 kts | 263° |
| 2026-04-22 22:26 | 36.73674 | 5.28203 | 34000 ft | 437 kts | 263° |
| 2026-04-22 22:26 | 36.72900 | 5.20686 | 34000 ft | 437 kts | 263° |
| 2026-04-22 22:27 | 36.72248 | 5.14389 | 34000 ft | 437 kts | 263° |
| 2026-04-22 22:27 | 36.71557 | 5.06870 | 33993 ft | 437 kts | 269° |
| 2026-04-22 22:28 | 36.71350 | 4.99344 | 33999 ft | 438 kts | 267° |
| 2026-04-22 22:28 | 36.71068 | 4.91769 | 33999 ft | 438 kts | 267° |
| 2026-04-22 22:29 | 36.70769 | 4.84171 | 34001 ft | 439 kts | 267° |
| 2026-04-22 22:29 | 36.70463 | 4.76574 | 33996 ft | 440 kts | 267° |
| 2026-04-22 22:30 | 36.70151 | 4.68927 | 33999 ft | 443 kts | 267° |
| 2026-04-22 22:30 | 36.69832 | 4.61239 | 33996 ft | 445 kts | 267° |
| 2026-04-22 22:31 | 36.69508 | 4.53531 | 34000 ft | 445 kts | 267° |
| 2026-04-22 22:31 | 36.69179 | 4.45845 | 34000 ft | 444 kts | 267° |
| 2026-04-22 22:32 | 36.68847 | 4.38185 | 34003 ft | 440 kts | 267° |
| 2026-04-22 22:32 | 36.68512 | 4.30594 | 33998 ft | 438 kts | 266° |
| 2026-04-22 22:33 | 36.68173 | 4.22993 | 34004 ft | 439 kts | 266° |
| 2026-04-22 22:33 | 36.67829 | 4.15406 | 34000 ft | 439 kts | 266° |
| 2026-04-22 22:34 | 36.67480 | 4.07816 | 33996 ft | 439 kts | 266° |
| 2026-04-22 22:34 | 36.67128 | 4.00265 | 34004 ft | 440 kts | 266° |
| 2026-04-22 22:35 | 36.66769 | 3.92663 | 34002 ft | 439 kts | 266° |
| 2026-04-22 22:35 | 36.66405 | 3.85074 | 34000 ft | 440 kts | 266° |
| 2026-04-22 22:36 | 36.66036 | 3.77467 | 34000 ft | 441 kts | 266° |
| 2026-04-22 22:36 | 36.65663 | 3.69846 | 34003 ft | 439 kts | 266° |
| 2026-04-22 22:37 | 36.65287 | 3.62269 | 34001 ft | 438 kts | 266° |
| 2026-04-22 22:37 | 36.65619 | 3.54731 | 34014 ft | 438 kts | 277° |
| 2026-04-22 22:38 | 36.66408 | 3.47191 | 34003 ft | 439 kts | 277° |
| 2026-04-22 22:38 | 36.67203 | 3.39654 | 34003 ft | 438 kts | 277° |
| 2026-04-22 22:39 | 36.67993 | 3.32145 | 34001 ft | 438 kts | 277° |
| 2026-04-22 22:39 | 36.68779 | 3.24634 | 34000 ft | 437 kts | 277° |
| 2026-04-22 22:39 | 36.69008 | 3.20863 | 33982 ft | 437 kts | 266° |
| 2026-04-22 22:40 | 36.68686 | 3.17106 | 34006 ft | 437 kts | 264° |
| 2026-04-22 22:40 | 36.68090 | 3.09570 | 34002 ft | 437 kts | 264° |
| 2026-04-22 22:41 | 36.67458 | 3.02034 | 33999 ft | 438 kts | 264° |
| 2026-04-22 22:41 | 36.66815 | 2.94491 | 34001 ft | 439 kts | 264° |
| 2026-04-22 22:42 | 36.66167 | 2.86939 | 33999 ft | 438 kts | 264° |
| 2026-04-22 22:42 | 36.65514 | 2.79395 | 33811 ft | 438 kts | 264° |
| 2026-04-22 22:42 | 36.65186 | 2.75630 | 33361 ft | 437 kts | 264° |
| 2026-04-22 22:43 | 36.64857 | 2.71867 | 32869 ft | 437 kts | 264° |
| 2026-04-22 22:43 | 36.64528 | 2.68108 | 32404 ft | 438 kts | 264° |
| 2026-04-22 22:43 | 36.64196 | 2.64336 | 32014 ft | 439 kts | 264° |
| 2026-04-22 22:43 | 36.63862 | 2.60558 | 31639 ft | 440 kts | 264° |
| 2026-04-22 22:44 | 36.63528 | 2.56790 | 31271 ft | 434 kts | 264° |
| 2026-04-22 22:44 | 36.63198 | 2.53079 | 30880 ft | 427 kts | 264° |
| 2026-04-22 22:44 | 36.62873 | 2.49436 | 30511 ft | 421 kts | 263° |
| 2026-04-22 22:44 | 36.62551 | 2.45841 | 30134 ft | 415 kts | 263° |
| 2026-04-22 22:45 | 36.62232 | 2.42296 | 29764 ft | 409 kts | 263° |
| 2026-04-22 22:45 | 36.61916 | 2.38793 | 29379 ft | 405 kts | 263° |
| 2026-04-22 22:45 | 36.61600 | 2.35302 | 29000 ft | 406 kts | 263° |
| 2026-04-22 22:45 | 36.61284 | 2.31818 | 28628 ft | 405 kts | 263° |
| 2026-04-22 22:46 | 36.60969 | 2.28353 | 28252 ft | 401 kts | 263° |
| 2026-04-22 22:46 | 36.60655 | 2.24918 | 27880 ft | 398 kts | 263° |
| 2026-04-22 22:46 | 36.60343 | 2.21507 | 27504 ft | 395 kts | 263° |
| 2026-04-22 22:46 | 36.59712 | 2.18211 | 27102 ft | 391 kts | 247° |
| 2026-04-22 22:47 | 36.58672 | 2.15137 | 26759 ft | 390 kts | 248° |
| 2026-04-22 22:47 | 36.57653 | 2.12022 | 26379 ft | 388 kts | 248° |
| 2026-04-22 22:47 | 36.56623 | 2.08927 | 26008 ft | 386 kts | 247° |
| 2026-04-22 22:47 | 36.55592 | 2.05859 | 25630 ft | 384 kts | 247° |
| 2026-04-22 22:48 | 36.54559 | 2.02799 | 25254 ft | 383 kts | 247° |
| 2026-04-22 22:48 | 36.53531 | 1.99763 | 24884 ft | 380 kts | 247° |
| 2026-04-22 22:48 | 36.52509 | 1.96746 | 24516 ft | 378 kts | 247° |
| 2026-04-22 22:48 | 36.51489 | 1.93743 | 24133 ft | 376 kts | 247° |
| 2026-04-22 22:49 | 36.50474 | 1.90754 | 23760 ft | 375 kts | 247° |
| 2026-04-22 22:49 | 36.49459 | 1.87769 | 23393 ft | 373 kts | 247° |
| 2026-04-22 22:49 | 36.48450 | 1.84804 | 23009 ft | 371 kts | 247° |
| 2026-04-22 22:49 | 36.47450 | 1.81870 | 22641 ft | 370 kts | 247° |
| 2026-04-22 22:50 | 36.46449 | 1.78934 | 22265 ft | 367 kts | 247° |
| 2026-04-22 22:50 | 36.45454 | 1.76022 | 21890 ft | 365 kts | 247° |
| 2026-04-22 22:50 | 36.44466 | 1.73130 | 21517 ft | 362 kts | 247° |
| 2026-04-22 22:50 | 36.43485 | 1.70260 | 21138 ft | 360 kts | 247° |
| 2026-04-22 22:51 | 36.42506 | 1.67401 | 20765 ft | 359 kts | 247° |
| 2026-04-22 22:51 | 36.41529 | 1.64551 | 20384 ft | 357 kts | 247° |
| 2026-04-22 22:51 | 36.40559 | 1.61725 | 20015 ft | 355 kts | 247° |
| 2026-04-22 22:51 | 36.39595 | 1.58916 | 19646 ft | 353 kts | 247° |
| 2026-04-22 22:52 | 36.38633 | 1.56117 | 19272 ft | 351 kts | 247° |
| 2026-04-22 22:52 | 36.37676 | 1.53333 | 18898 ft | 350 kts | 247° |
| 2026-04-22 22:52 | 36.36725 | 1.50563 | 18522 ft | 348 kts | 247° |
| 2026-04-22 22:52 | 36.35800 | 1.47798 | 18149 ft | 347 kts | 248° |
| 2026-04-22 22:53 | 36.34878 | 1.45041 | 17778 ft | 345 kts | 247° |
| 2026-04-22 22:53 | 36.33958 | 1.42295 | 17399 ft | 344 kts | 247° |
| 2026-04-22 22:53 | 36.33040 | 1.39557 | 17023 ft | 343 kts | 247° |
| 2026-04-22 22:53 | 36.32125 | 1.36835 | 16649 ft | 341 kts | 247° |
| 2026-04-22 22:54 | 36.31213 | 1.34121 | 16274 ft | 340 kts | 247° |
| 2026-04-22 22:54 | 36.30305 | 1.31423 | 15892 ft | 339 kts | 247° |
| 2026-04-22 22:54 | 36.29399 | 1.28734 | 15524 ft | 337 kts | 247° |
| 2026-04-22 22:54 | 36.28496 | 1.26054 | 15150 ft | 336 kts | 247° |
| 2026-04-22 22:55 | 36.27597 | 1.23389 | 14769 ft | 335 kts | 247° |
| 2026-04-22 22:55 | 36.26698 | 1.20729 | 14401 ft | 334 kts | 247° |
| 2026-04-22 22:55 | 36.24914 | 1.15454 | 13653 ft | 330 kts | 247° |
| 2026-04-22 22:56 | 36.24040 | 1.12873 | 13282 ft | 329 kts | 247° |
| 2026-04-22 22:56 | 36.23159 | 1.10273 | 12911 ft | 327 kts | 247° |
| 2026-04-22 22:56 | 36.22280 | 1.07682 | 12542 ft | 325 kts | 247° |
| 2026-04-22 22:56 | 36.21405 | 1.05105 | 12169 ft | 324 kts | 247° |
| 2026-04-22 22:57 | 36.20533 | 1.02537 | 11789 ft | 323 kts | 247° |
| 2026-04-22 22:57 | 36.19664 | 0.99983 | 11415 ft | 321 kts | 247° |
| 2026-04-22 22:57 | 36.18800 | 0.97445 | 11042 ft | 320 kts | 247° |
| 2026-04-22 22:57 | 36.17938 | 0.94914 | 10663 ft | 318 kts | 247° |
| 2026-04-22 22:58 | 36.17079 | 0.92394 | 10289 ft | 317 kts | 247° |
| 2026-04-22 22:58 | 36.16222 | 0.89882 | 9918 ft | 316 kts | 247° |
| 2026-04-22 22:58 | 36.15368 | 0.87380 | 9548 ft | 315 kts | 247° |
| 2026-04-22 22:58 | 36.14520 | 0.84901 | 9231 ft | 311 kts | 247° |
| 2026-04-22 22:59 | 36.13683 | 0.82451 | 8984 ft | 306 kts | 247° |
| 2026-04-22 22:59 | 36.12859 | 0.80046 | 8729 ft | 301 kts | 247° |
| 2026-04-22 22:59 | 36.12049 | 0.77681 | 8469 ft | 297 kts | 247° |
| 2026-04-22 22:59 | 36.11250 | 0.75350 | 8225 ft | 292 kts | 247° |
| 2026-04-22 23:00 | 36.10461 | 0.73052 | 7981 ft | 288 kts | 247° |
| 2026-04-22 23:00 | 36.09685 | 0.70790 | 7719 ft | 284 kts | 247° |
| 2026-04-22 23:00 | 36.08919 | 0.68561 | 7465 ft | 280 kts | 247° |
| 2026-04-22 23:00 | 36.08161 | 0.66358 | 7213 ft | 277 kts | 247° |
| 2026-04-22 23:01 | 36.07413 | 0.64185 | 6961 ft | 273 kts | 247° |
| 2026-04-22 23:01 | 36.06674 | 0.62040 | 6705 ft | 270 kts | 247° |
| 2026-04-22 23:01 | 36.05943 | 0.59916 | 6453 ft | 267 kts | 247° |
| 2026-04-22 23:01 | 36.05221 | 0.57822 | 6203 ft | 264 kts | 247° |
| 2026-04-22 23:02 | 36.04505 | 0.55749 | 5951 ft | 261 kts | 247° |
| 2026-04-22 23:02 | 36.03795 | 0.53693 | 5699 ft | 258 kts | 247° |
| 2026-04-22 23:02 | 36.03096 | 0.51670 | 5471 ft | 254 kts | 247° |
| 2026-04-22 23:02 | 36.02407 | 0.49678 | 5269 ft | 250 kts | 247° |
| 2026-04-22 23:03 | 36.01731 | 0.47723 | 5086 ft | 245 kts | 247° |
| 2026-04-22 23:03 | 36.01067 | 0.45805 | 4978 ft | 242 kts | 247° |
| 2026-04-22 23:03 | 36.00405 | 0.43895 | 4877 ft | 242 kts | 247° |
| 2026-04-22 23:03 | 35.99744 | 0.41987 | 4780 ft | 241 kts | 247° |
| 2026-04-22 23:04 | 35.99092 | 0.40108 | 4680 ft | 241 kts | 247° |
| 2026-04-22 23:04 | 35.98425 | 0.38187 | 4578 ft | 240 kts | 246° |
| 2026-04-22 23:04 | 35.97775 | 0.36316 | 4478 ft | 241 kts | 247° |
| 2026-04-22 23:04 | 35.97108 | 0.34397 | 4368 ft | 240 kts | 246° |
| 2026-04-22 23:05 | 35.96457 | 0.32525 | 4280 ft | 240 kts | 247° |
| 2026-04-22 23:05 | 35.95791 | 0.30608 | 4174 ft | 240 kts | 247° |
| 2026-04-22 23:05 | 35.95142 | 0.28744 | 4082 ft | 239 kts | 246° |
| 2026-04-22 23:05 | 35.94486 | 0.26863 | 3979 ft | 239 kts | 246° |
| 2026-04-22 23:06 | 35.93832 | 0.24984 | 3880 ft | 237 kts | 246° |
| 2026-04-22 23:06 | 35.93191 | 0.23146 | 3771 ft | 229 kts | 246° |
| 2026-04-22 23:06 | 35.92573 | 0.21375 | 3650 ft | 221 kts | 246° |
| 2026-04-22 23:06 | 35.91970 | 0.19647 | 3543 ft | 219 kts | 246° |
| 2026-04-22 23:07 | 35.91366 | 0.17916 | 3442 ft | 219 kts | 246° |
| 2026-04-22 23:07 | 35.90764 | 0.16193 | 3342 ft | 218 kts | 246° |
| 2026-04-22 23:07 | 35.90167 | 0.14485 | 3240 ft | 216 kts | 246° |
| 2026-04-22 23:07 | 35.89406 | 0.12899 | 3195 ft | 215 kts | 231° |
| 2026-04-22 23:08 | 35.88479 | 0.11448 | 3214 ft | 216 kts | 232° |
| 2026-04-22 23:08 | 35.87555 | 0.09979 | 3205 ft | 216 kts | 232° |
| 2026-04-22 23:08 | 35.86639 | 0.08511 | 3203 ft | 216 kts | 232° |
| 2026-04-22 23:08 | 35.85729 | 0.07044 | 3202 ft | 216 kts | 233° |
| 2026-04-22 23:09 | 35.85008 | 0.05427 | 3191 ft | 215 kts | 248° |
| 2026-04-22 23:09 | 35.84471 | 0.03775 | 3238 ft | 199 kts | 248° |
| 2026-04-22 23:09 | 35.83965 | 0.02241 | 3217 ft | 190 kts | 248° |
| 2026-04-22 23:09 | 35.83474 | 0.00760 | 3223 ft | 185 kts | 248° |
| 2026-04-22 23:10 | 35.82985 | -0.00703 | 3209 ft | 185 kts | 248° |
| 2026-04-22 23:10 | 35.82492 | -0.02172 | 3202 ft | 185 kts | 247° |
| 2026-04-22 23:10 | 35.82000 | -0.03633 | 3203 ft | 185 kts | 247° |
| 2026-04-22 23:10 | 35.81508 | -0.05092 | 3201 ft | 185 kts | 247° |
| 2026-04-22 23:11 | 35.81015 | -0.06553 | 3200 ft | 185 kts | 247° |
| 2026-04-22 23:11 | 35.80521 | -0.08015 | 3201 ft | 185 kts | 247° |
| 2026-04-22 23:11 | 35.80027 | -0.09475 | 3199 ft | 185 kts | 247° |
| 2026-04-22 23:11 | 35.79533 | -0.10934 | 3200 ft | 185 kts | 247° |
| 2026-04-22 23:12 | 35.79036 | -0.12395 | 3200 ft | 185 kts | 246° |
| 2026-04-22 23:12 | 35.78523 | -0.13847 | 3202 ft | 185 kts | 246° |
| 2026-04-22 23:12 | 35.78016 | -0.15297 | 3204 ft | 185 kts | 247° |
| 2026-04-22 23:12 | 35.77512 | -0.16750 | 3208 ft | 185 kts | 247° |
| 2026-04-22 23:13 | 35.77017 | -0.18188 | 3191 ft | 179 kts | 247° |
| 2026-04-22 23:13 | 35.76540 | -0.19577 | 3170 ft | 175 kts | 247° |
| 2026-04-22 23:13 | 35.76071 | -0.20951 | 3262 ft | 175 kts | 247° |
| 2026-04-22 23:13 | 35.75601 | -0.22329 | 3270 ft | 175 kts | 247° |
| 2026-04-22 23:14 | 35.75290 | -0.23244 | 3245 ft | 175 kts | 247° |
| 2026-04-22 23:14 | 35.74820 | -0.24624 | 3208 ft | 174 kts | 247° |
| 2026-04-22 23:14 | 35.74200 | -0.26448 | 3198 ft | 174 kts | 247° |
| 2026-04-22 23:14 | 35.73885 | -0.27378 | 3198 ft | 174 kts | 247° |
| 2026-04-22 23:15 | 35.73266 | -0.29201 | 3198 ft | 174 kts | 247° |
| 2026-04-22 23:15 | 35.72798 | -0.30578 | 3199 ft | 174 kts | 247° |
| 2026-04-22 23:15 | 35.72335 | -0.31944 | 3191 ft | 171 kts | 247° |
| 2026-04-22 23:15 | 35.71880 | -0.33286 | 3205 ft | 169 kts | 247° |
| 2026-04-22 23:16 | 35.71573 | -0.34191 | 3248 ft | 170 kts | 247° |
| 2026-04-22 23:16 | 35.71119 | -0.35529 | 3240 ft | 169 kts | 247° |
| 2026-04-22 23:16 | 35.70678 | -0.36827 | 3196 ft | 164 kts | 247° |
| 2026-04-22 23:16 | 35.70247 | -0.38097 | 3193 ft | 158 kts | 247° |
| 2026-04-22 23:17 | 35.69837 | -0.39307 | 3224 ft | 150 kts | 247° |
| 2026-04-22 23:17 | 35.69441 | -0.40471 | 3207 ft | 145 kts | 247° |
| 2026-04-22 23:17 | 35.69055 | -0.41609 | 3186 ft | 144 kts | 247° |
| 2026-04-22 23:17 | 35.68671 | -0.42743 | 3189 ft | 144 kts | 247° |
| 2026-04-22 23:18 | 35.68285 | -0.43878 | 3195 ft | 144 kts | 247° |
| 2026-04-22 23:18 | 35.67899 | -0.45014 | 3195 ft | 144 kts | 247° |
| 2026-04-22 23:18 | 35.67516 | -0.46154 | 3138 ft | 144 kts | 248° |
| 2026-04-22 23:18 | 35.67141 | -0.47291 | 3007 ft | 143 kts | 248° |
| 2026-04-22 23:19 | 35.66769 | -0.48430 | 2825 ft | 143 kts | 248° |
| 2026-04-22 23:19 | 35.66399 | -0.49564 | 2599 ft | 142 kts | 248° |
| 2026-04-22 23:19 | 35.66030 | -0.50688 | 2378 ft | 142 kts | 248° |
| 2026-04-22 23:19 | 35.65641 | -0.51798 | 2139 ft | 142 kts | 245° |
| 2026-04-22 23:20 | 35.65237 | -0.52896 | 1903 ft | 140 kts | 245° |
| 2026-04-22 23:20 | 35.64832 | -0.53988 | 1682 ft | 141 kts | 246° |
| 2026-04-22 23:20 | 35.64454 | -0.55092 | 1419 ft | 140 kts | 248° |
| 2026-04-22 23:20 | 35.64096 | -0.56203 | 1119 ft | 139 kts | 248° |
| 2026-04-22 23:21 | 35.63721 | -0.57294 | 891 ft | 139 kts | 247° |
| 2026-04-22 23:21 | 35.63336 | -0.58379 | 641 ft | 137 kts | 246° |
| 2026-04-22 23:21 | 35.62959 | -0.59459 | 499 ft | 138 kts | 247° |
| 2026-04-22 23:21 | 35.62589 | -0.60546 | 367 ft | 137 kts | 248° |
| 2026-04-22 23:22 | 35.62241 | -0.61610 | 299 ft | 124 kts | 248° |
| 2026-04-22 23:22 | 35.62025 | -0.62276 | 301 ft | 35 kts | 246° |
| 2026-04-22 23:22 | 35.61928 | -0.62339 | 301 ft | 17 kts | 189° |
| 2026-04-22 23:22 | 35.61846 | -0.62301 | 301 ft | 10 kts | 117° |
| 2026-04-22 23:23 | 35.61810 | -0.62216 | 300 ft | 12 kts | 117° |
| 2026-04-22 23:23 | 35.61799 | -0.62123 | 300 ft | 11 kts | 73° |
| 2026-04-22 23:23 | 35.61827 | -0.62036 | 302 ft | 11 kts | 68° |
| 2026-04-22 23:23 | 35.61858 | -0.61941 | 304 ft | 13 kts | 68° |
| 2026-04-22 23:24 | 35.61895 | -0.61828 | 301 ft | 15 kts | 68° |
| 2026-04-22 23:24 | 35.61939 | -0.61705 | 303 ft | 16 kts | 66° |
| 2026-04-22 23:24 | 35.61985 | -0.61578 | 307 ft | 17 kts | 66° |
| 2026-04-22 23:24 | 35.62032 | -0.61439 | 308 ft | 18 kts | 68° |
| 2026-04-22 23:25 | 35.62083 | -0.61288 | 305 ft | 20 kts | 68° |
| 2026-04-22 23:25 | 35.62136 | -0.61125 | 306 ft | 21 kts | 71° |
| 2026-04-22 23:25 | 35.62104 | -0.60961 | 306 ft | 21 kts | 103° |
| 2026-04-22 23:25 | 35.62146 | -0.60791 | 307 ft | 21 kts | 69° |
| 2026-04-22 23:26 | 35.62197 | -0.60622 | 306 ft | 13 kts | 87° |
| 2026-04-22 23:26 | 35.62173 | -0.60578 | 307 ft | 2 kts | 181° |
| 2026-04-22 23:26 | 35.62133 | -0.60619 | 307 ft | 5 kts | 248° |
| 2026-04-22 23:26 | 35.62122 | -0.60632 | 305 ft | 0 kts | 200° |